OELCW LOWL-LOWW
Flight info
| Callsign | OELCW |
|---|---|
| Flight time | 0h 29m |
| Altitude | 15000 |
| Route | PEROL DCT MASUR MASUR3W |
| Aircraft | A20N/M-SDE2E3FGHIRWXY/LB1 |
Departure
| Time | 2026-04-20 16:50 |
|---|---|
| Airport | Linz-Hörsching Airport (LOWL) |
Arrival
| Time | 2026-04-20 17:19 |
|---|---|
| Airport | Vienna International Airport (LOWW) |
| Time | Latitude | Longitude | Altitude | Speed | Heading |
|---|---|---|---|---|---|
| 2026-04-20 16:27 | 48.23883 | 14.19258 | 973 ft | 0 kts | 269° |
| 2026-04-20 16:44 | 48.23883 | 14.19252 | 972 ft | 2 kts | 268° |
| 2026-04-20 16:44 | 48.23872 | 14.19222 | 976 ft | 4 kts | 221° |
| 2026-04-20 16:45 | 48.23842 | 14.19209 | 974 ft | 5 kts | 186° |
| 2026-04-20 16:45 | 48.23804 | 14.19211 | 978 ft | 6 kts | 175° |
| 2026-04-20 16:45 | 48.23765 | 14.19243 | 984 ft | 8 kts | 118° |
| 2026-04-20 16:45 | 48.23761 | 14.19356 | 974 ft | 14 kts | 87° |
| 2026-04-20 16:46 | 48.23768 | 14.19520 | 978 ft | 6 kts | 86° |
| 2026-04-20 16:46 | 48.23764 | 14.19572 | 978 ft | 7 kts | 105° |
| 2026-04-20 16:46 | 48.23716 | 14.19623 | 973 ft | 11 kts | 160° |
| 2026-04-20 16:46 | 48.23635 | 14.19669 | 974 ft | 13 kts | 158° |
| 2026-04-20 16:47 | 48.23569 | 14.19707 | 975 ft | 9 kts | 159° |
| 2026-04-20 16:47 | 48.23498 | 14.19747 | 978 ft | 12 kts | 159° |
| 2026-04-20 16:47 | 48.23415 | 14.19801 | 976 ft | 15 kts | 152° |
| 2026-04-20 16:47 | 48.23370 | 14.19941 | 975 ft | 17 kts | 96° |
| 2026-04-20 16:48 | 48.23372 | 14.20136 | 977 ft | 20 kts | 86° |
| 2026-04-20 16:48 | 48.23382 | 14.20376 | 978 ft | 25 kts | 89° |
| 2026-04-20 16:48 | 48.23374 | 14.20537 | 977 ft | 5 kts | 79° |
| 2026-04-20 16:48 | 48.23381 | 14.20539 | 982 ft | 0 kts | 4° |
| 2026-04-20 16:49 | 48.23387 | 14.20523 | 982 ft | 1 kts | 288° |
| 2026-04-20 16:49 | 48.23384 | 14.20469 | 974 ft | 5 kts | 267° |
| 2026-04-20 16:49 | 48.23382 | 14.20396 | 973 ft | 33 kts | 268° |
| 2026-04-20 16:49 | 48.23357 | 14.19694 | 980 ft | 99 kts | 268° |
| 2026-04-20 16:50 | 48.23312 | 14.18421 | 1122 ft | 134 kts | 268° |
| 2026-04-20 16:50 | 48.23246 | 14.16999 | 1643 ft | 139 kts | 268° |
| 2026-04-20 16:50 | 48.23251 | 14.15507 | 2186 ft | 149 kts | 287° |
| 2026-04-20 16:50 | 48.23871 | 14.14248 | 2759 ft | 160 kts | 324° |
| 2026-04-20 16:51 | 48.25011 | 14.13893 | 3370 ft | 183 kts | 2° |
| 2026-04-20 16:51 | 48.26249 | 14.14772 | 3995 ft | 214 kts | 35° |
| 2026-04-20 16:51 | 48.27265 | 14.16493 | 5013 ft | 223 kts | 47° |
| 2026-04-20 16:51 | 48.28219 | 14.18379 | 5979 ft | 235 kts | 51° |
| 2026-04-20 16:52 | 48.28824 | 14.20810 | 6618 ft | 266 kts | 82° |
| 2026-04-20 16:52 | 48.28670 | 14.23736 | 7232 ft | 291 kts | 103° |
| 2026-04-20 16:52 | 48.28089 | 14.26730 | 8031 ft | 304 kts | 108° |
| 2026-04-20 16:52 | 48.27431 | 14.29773 | 9126 ft | 307 kts | 108° |
| 2026-04-20 16:53 | 48.26811 | 14.32890 | 10158 ft | 313 kts | 107° |
| 2026-04-20 16:53 | 48.26232 | 14.36095 | 10766 ft | 334 kts | 105° |
| 2026-04-20 16:53 | 48.25641 | 14.39607 | 11221 ft | 358 kts | 104° |
| 2026-04-20 16:53 | 48.25036 | 14.43338 | 11937 ft | 368 kts | 103° |
| 2026-04-20 16:54 | 48.24722 | 14.47119 | 12855 ft | 372 kts | 88° |
| 2026-04-20 16:54 | 48.25158 | 14.50950 | 13760 ft | 375 kts | 69° |
| 2026-04-20 16:54 | 48.26184 | 14.54569 | 14511 ft | 379 kts | 63° |
| 2026-04-20 16:54 | 48.27270 | 14.58201 | 14865 ft | 382 kts | 63° |
| 2026-04-20 16:55 | 48.28354 | 14.61848 | 14982 ft | 383 kts | 63° |
| 2026-04-20 16:55 | 48.29436 | 14.65515 | 15018 ft | 384 kts | 64° |
| 2026-04-20 16:55 | 48.30509 | 14.69174 | 15017 ft | 383 kts | 64° |
| 2026-04-20 16:55 | 48.31580 | 14.72841 | 15011 ft | 383 kts | 64° |
| 2026-04-20 16:56 | 48.32664 | 14.76559 | 15014 ft | 383 kts | 64° |
| 2026-04-20 16:56 | 48.33731 | 14.80226 | 15013 ft | 382 kts | 64° |
| 2026-04-20 16:56 | 48.34801 | 14.83908 | 15010 ft | 384 kts | 64° |
| 2026-04-20 16:56 | 48.35865 | 14.87577 | 15010 ft | 382 kts | 64° |
| 2026-04-20 16:57 | 48.36927 | 14.91241 | 15008 ft | 383 kts | 64° |
| 2026-04-20 16:57 | 48.37994 | 14.94928 | 15008 ft | 384 kts | 64° |
| 2026-04-20 16:57 | 48.39053 | 14.98593 | 15009 ft | 383 kts | 64° |
| 2026-04-20 16:57 | 48.40134 | 15.02341 | 15012 ft | 383 kts | 64° |
| 2026-04-20 16:58 | 48.41191 | 15.06010 | 15008 ft | 383 kts | 64° |
| 2026-04-20 16:58 | 48.42252 | 15.09699 | 15008 ft | 384 kts | 64° |
| 2026-04-20 16:58 | 48.43311 | 15.13388 | 15006 ft | 383 kts | 64° |
| 2026-04-20 16:58 | 48.44367 | 15.17073 | 15009 ft | 384 kts | 64° |
| 2026-04-20 16:59 | 48.45428 | 15.20780 | 15004 ft | 384 kts | 64° |
| 2026-04-20 16:59 | 48.46486 | 15.24480 | 15006 ft | 384 kts | 64° |
| 2026-04-20 16:59 | 48.47540 | 15.28174 | 15004 ft | 384 kts | 64° |
| 2026-04-20 16:59 | 48.48595 | 15.31877 | 15005 ft | 384 kts | 64° |
| 2026-04-20 17:00 | 48.50701 | 15.39285 | 14949 ft | 385 kts | 64° |
| 2026-04-20 17:00 | 48.51541 | 15.43115 | 14701 ft | 386 kts | 76° |
| 2026-04-20 17:00 | 48.51807 | 15.47130 | 14467 ft | 385 kts | 92° |
| 2026-04-20 17:01 | 48.51319 | 15.51070 | 14238 ft | 383 kts | 108° |
| 2026-04-20 17:01 | 48.50529 | 15.54914 | 13984 ft | 383 kts | 108° |
| 2026-04-20 17:01 | 48.49728 | 15.58736 | 13742 ft | 381 kts | 108° |
| 2026-04-20 17:01 | 48.48923 | 15.62568 | 13466 ft | 379 kts | 108° |
| 2026-04-20 17:02 | 48.48136 | 15.66315 | 13202 ft | 377 kts | 108° |
| 2026-04-20 17:02 | 48.47345 | 15.70076 | 13026 ft | 374 kts | 108° |
| 2026-04-20 17:02 | 48.46558 | 15.73823 | 12864 ft | 377 kts | 108° |
| 2026-04-20 17:02 | 48.45766 | 15.77586 | 12609 ft | 375 kts | 108° |
| 2026-04-20 17:03 | 48.44980 | 15.81315 | 12342 ft | 371 kts | 108° |
| 2026-04-20 17:03 | 48.44201 | 15.85007 | 12082 ft | 367 kts | 108° |
| 2026-04-20 17:03 | 48.43416 | 15.88718 | 12000 ft | 369 kts | 108° |
| 2026-04-20 17:03 | 48.42640 | 15.92380 | 11997 ft | 370 kts | 108° |
| 2026-04-20 17:04 | 48.41850 | 15.96106 | 11998 ft | 370 kts | 108° |
| 2026-04-20 17:04 | 48.41063 | 15.99802 | 11999 ft | 370 kts | 108° |
| 2026-04-20 17:04 | 48.40280 | 16.03480 | 11992 ft | 369 kts | 108° |
| 2026-04-20 17:04 | 48.39495 | 16.07157 | 11994 ft | 369 kts | 108° |
| 2026-04-20 17:05 | 48.38708 | 16.10837 | 11994 ft | 369 kts | 108° |
| 2026-04-20 17:05 | 48.37923 | 16.14504 | 11995 ft | 368 kts | 108° |
| 2026-04-20 17:05 | 48.37137 | 16.18171 | 11993 ft | 368 kts | 108° |
| 2026-04-20 17:05 | 48.36350 | 16.21833 | 11994 ft | 367 kts | 108° |
| 2026-04-20 17:06 | 48.35820 | 16.24295 | 11992 ft | 367 kts | 108° |
| 2026-04-20 17:06 | 48.35030 | 16.27960 | 11996 ft | 367 kts | 108° |
| 2026-04-20 17:06 | 48.34238 | 16.31631 | 11995 ft | 367 kts | 108° |
| 2026-04-20 17:06 | 48.33441 | 16.35314 | 11994 ft | 366 kts | 108° |
| 2026-04-20 17:07 | 48.32649 | 16.38969 | 11993 ft | 366 kts | 108° |
| 2026-04-20 17:07 | 48.31864 | 16.42585 | 11992 ft | 366 kts | 108° |
| 2026-04-20 17:07 | 48.31075 | 16.46214 | 11992 ft | 366 kts | 108° |
| 2026-04-20 17:07 | 48.30283 | 16.49845 | 11916 ft | 364 kts | 108° |
| 2026-04-20 17:08 | 48.29498 | 16.53445 | 11564 ft | 362 kts | 108° |
| 2026-04-20 17:08 | 48.28704 | 16.57077 | 11078 ft | 359 kts | 108° |
| 2026-04-20 17:08 | 48.27881 | 16.60644 | 10571 ft | 357 kts | 114° |
| 2026-04-20 17:08 | 48.26476 | 16.63656 | 10264 ft | 346 kts | 137° |
| 2026-04-20 17:09 | 48.24551 | 16.65543 | 10121 ft | 328 kts | 161° |
| 2026-04-20 17:09 | 48.22426 | 16.66527 | 10001 ft | 313 kts | 167° |
| 2026-04-20 17:09 | 48.20354 | 16.67347 | 9740 ft | 304 kts | 168° |
| 2026-04-20 17:09 | 48.18330 | 16.68134 | 9180 ft | 299 kts | 168° |
| 2026-04-20 17:10 | 48.16319 | 16.68933 | 8561 ft | 297 kts | 167° |
| 2026-04-20 17:10 | 48.14331 | 16.69742 | 7994 ft | 295 kts | 167° |
| 2026-04-20 17:10 | 48.12336 | 16.70566 | 7417 ft | 292 kts | 167° |
| 2026-04-20 17:10 | 48.10386 | 16.71378 | 6861 ft | 290 kts | 167° |
| 2026-04-20 17:11 | 48.08454 | 16.72183 | 6328 ft | 287 kts | 166° |
| 2026-04-20 17:11 | 48.06533 | 16.72983 | 5757 ft | 285 kts | 166° |
| 2026-04-20 17:11 | 48.04636 | 16.73773 | 5216 ft | 282 kts | 166° |
| 2026-04-20 17:11 | 48.02779 | 16.74547 | 4928 ft | 269 kts | 166° |
| 2026-04-20 17:12 | 48.01015 | 16.75283 | 4638 ft | 259 kts | 167° |
| 2026-04-20 17:12 | 47.99286 | 16.76002 | 4200 ft | 256 kts | 167° |
| 2026-04-20 17:12 | 47.97565 | 16.76716 | 3835 ft | 257 kts | 167° |
| 2026-04-20 17:12 | 47.95814 | 16.77440 | 3323 ft | 264 kts | 167° |
| 2026-04-20 17:13 | 47.94034 | 16.78003 | 3049 ft | 257 kts | 182° |
| 2026-04-20 17:13 | 47.92378 | 16.77419 | 2995 ft | 241 kts | 214° |
| 2026-04-20 17:13 | 47.91202 | 16.75710 | 2999 ft | 234 kts | 245° |
| 2026-04-20 17:13 | 47.90625 | 16.73470 | 2991 ft | 231 kts | 255° |
| 2026-04-20 17:14 | 47.90387 | 16.71159 | 3004 ft | 225 kts | 280° |
| 2026-04-20 17:14 | 47.90989 | 16.69020 | 3015 ft | 235 kts | 307° |
| 2026-04-20 17:14 | 47.92113 | 16.67158 | 2992 ft | 240 kts | 319° |
| 2026-04-20 17:14 | 47.93484 | 16.65872 | 2998 ft | 227 kts | 333° |
| 2026-04-20 17:15 | 47.94909 | 16.65061 | 2999 ft | 210 kts | 340° |
| 2026-04-20 17:15 | 47.96241 | 16.64465 | 3005 ft | 196 kts | 341° |
| 2026-04-20 17:15 | 47.97509 | 16.63925 | 2997 ft | 176 kts | 341° |
| 2026-04-20 17:15 | 47.98611 | 16.63462 | 2775 ft | 153 kts | 340° |
| 2026-04-20 17:16 | 47.99567 | 16.63059 | 2545 ft | 134 kts | 340° |
| 2026-04-20 17:16 | 48.00404 | 16.62707 | 2373 ft | 120 kts | 340° |
| 2026-04-20 17:16 | 48.01229 | 16.62355 | 2202 ft | 125 kts | 340° |
| 2026-04-20 17:16 | 48.02061 | 16.62006 | 2033 ft | 123 kts | 340° |
| 2026-04-20 17:17 | 48.02877 | 16.61661 | 1871 ft | 123 kts | 340° |
| 2026-04-20 17:17 | 48.03720 | 16.61307 | 1724 ft | 129 kts | 340° |
| 2026-04-20 17:17 | 48.04555 | 16.60963 | 1502 ft | 119 kts | 342° |
| 2026-04-20 17:17 | 48.05366 | 16.60639 | 1319 ft | 122 kts | 343° |
| 2026-04-20 17:18 | 48.06190 | 16.60288 | 1180 ft | 122 kts | 340° |
| 2026-04-20 17:18 | 48.07001 | 16.59907 | 1007 ft | 122 kts | 343° |
| 2026-04-20 17:18 | 48.07824 | 16.59570 | 838 ft | 122 kts | 344° |
| 2026-04-20 17:18 | 48.08639 | 16.59225 | 696 ft | 120 kts | 343° |
| 2026-04-20 17:19 | 48.09417 | 16.58899 | 619 ft | 110 kts | 343° |
| 2026-04-20 17:19 | 48.10044 | 16.58632 | 618 ft | 79 kts | 344° |
| 2026-04-20 17:19 | 48.10510 | 16.58437 | 616 ft | 60 kts | 345° |
| 2026-04-20 17:19 | 48.10812 | 16.58309 | 614 ft | 39 kts | 347° |
| 2026-04-20 17:20 | 48.11002 | 16.58159 | 612 ft | 29 kts | 309° |
| 2026-04-20 17:20 | 48.11086 | 16.57942 | 621 ft | 18 kts | 294° |
| 2026-04-20 17:20 | 48.11141 | 16.57764 | 621 ft | 19 kts | 298° |
| 2026-04-20 17:20 | 48.11202 | 16.57581 | 615 ft | 19 kts | 295° |
| 2026-04-20 17:21 | 48.11260 | 16.57398 | 621 ft | 20 kts | 296° |
| 2026-04-20 17:21 | 48.11311 | 16.57245 | 612 ft | 13 kts | 295° |
| 2026-04-20 17:21 | 48.11356 | 16.57106 | 609 ft | 16 kts | 296° |
| 2026-04-20 17:21 | 48.11410 | 16.56941 | 613 ft | 19 kts | 295° |
| 2026-04-20 17:22 | 48.11466 | 16.56770 | 619 ft | 16 kts | 296° |
| 2026-04-20 17:22 | 48.11517 | 16.56612 | 617 ft | 18 kts | 295° |
| 2026-04-20 17:22 | 48.11574 | 16.56436 | 623 ft | 18 kts | 296° |
| 2026-04-20 17:22 | 48.11623 | 16.56288 | 620 ft | 16 kts | 296° |
| 2026-04-20 17:23 | 48.11674 | 16.56131 | 620 ft | 17 kts | 296° |
| 2026-04-20 17:23 | 48.11731 | 16.55957 | 617 ft | 20 kts | 295° |
| 2026-04-20 17:23 | 48.11786 | 16.55781 | 609 ft | 17 kts | 296° |
| 2026-04-20 17:23 | 48.11833 | 16.55643 | 618 ft | 14 kts | 296° |
| 2026-04-20 17:24 | 48.11869 | 16.55534 | 618 ft | 3 kts | 299° |
| 2026-04-20 17:24 | 48.11881 | 16.55490 | 613 ft | 7 kts | 286° |
| 2026-04-20 17:24 | 48.11908 | 16.55427 | 616 ft | 4 kts | 345° |
| 2026-04-20 17:24 | 48.11937 | 16.55450 | 609 ft | 7 kts | 30° |
| 2026-04-20 17:25 | 48.11991 | 16.55493 | 609 ft | 10 kts | 26° |
| 2026-04-20 17:25 | 48.12048 | 16.55535 | 617 ft | 7 kts | 27° |
| 2026-04-20 17:25 | 48.12089 | 16.55564 | 609 ft | 3 kts | 25° |
| 2026-04-20 17:25 | 48.12104 | 16.55587 | 619 ft | 3 kts | 79° |
| 2026-04-20 17:26 | 48.12097 | 16.55634 | 618 ft | 4 kts | 116° |
| 2026-04-20 17:26 | 48.12092 | 16.55647 | 609 ft | 3 kts | 116° |
| 2026-04-20 17:26 | 48.12088 | 16.55658 | 616 ft | 0 kts | 118° |